createdAt,value
2022-11-26T00:01:19.847Z,2.13
2022-11-26T00:03:47.314Z,1.70
2022-11-26T00:06:23.454Z,2.33
2022-11-26T00:08:50.419Z,2.83
2022-11-26T00:11:17.264Z,2.60
2022-11-26T00:13:44.346Z,1.80
2022-11-26T00:16:13.381Z,2.22
2022-11-26T00:18:41.377Z,1.88
2022-11-26T00:21:24.052Z,2.20
2022-11-26T00:23:52.302Z,2.00
2022-11-26T00:26:22.365Z,1.70
2022-11-26T00:29:00.315Z,1.77
2022-11-26T00:31:28.945Z,1.90
2022-11-26T00:33:56.439Z,1.95
2022-11-26T00:36:28.874Z,1.95
2022-11-26T00:38:57.936Z,2.05
2022-11-26T00:41:27.036Z,1.50
2022-11-26T00:43:53.726Z,1.73
2022-11-26T00:46:21.658Z,1.60
2022-11-26T00:48:48.856Z,1.60
2022-11-26T00:51:35.931Z,1.50
2022-11-26T00:54:03.938Z,1.33
2022-11-26T00:56:37.618Z,1.80
2022-11-26T00:59:05.231Z,1.90
2022-11-26T01:01:32.918Z,2.42
2022-11-26T01:03:59.936Z,2.13
2022-11-26T01:06:33.203Z,1.27
2022-11-26T01:09:05.109Z,2.65
2022-11-26T01:11:32.182Z,1.70
2022-11-26T01:13:59.334Z,1.60
2022-11-26T01:16:29.116Z,1.40
2022-11-26T01:18:58.152Z,1.92
2022-11-26T01:21:27.050Z,1.33
2022-11-26T01:23:54.149Z,1.42
2022-11-26T01:26:23.670Z,1.45
2022-11-26T01:28:51.303Z,1.15
2022-11-26T01:31:22.256Z,1.30
2022-11-26T01:33:49.497Z,1.00
2022-11-26T01:36:25.442Z,1.38
2022-11-26T01:38:53.844Z,0.93
2022-11-26T01:41:44.852Z,1.38
2022-11-26T01:44:28.437Z,1.25
2022-11-26T01:46:57.881Z,1.13
2022-11-26T01:49:33.386Z,1.67
2022-11-26T01:52:05.090Z,2.28
2022-11-26T01:57:12.608Z,1.42
2022-11-26T01:59:44.991Z,1.10
2022-11-26T02:02:12.095Z,1.73
2022-11-26T02:04:46.597Z,3.15
2022-11-26T02:07:13.515Z,2.00
2022-11-26T02:09:40.838Z,1.70
2022-11-26T02:12:07.689Z,1.80
2022-11-26T02:14:41.845Z,2.33
2022-11-26T02:17:29.867Z,2.38
2022-11-26T02:20:34.318Z,3.38
2022-11-26T02:23:29.692Z,2.53
2022-11-26T02:26:31.652Z,1.75
2022-11-26T02:29:44.865Z,1.75
2022-11-26T02:32:17.592Z,1.92
2022-11-26T02:35:09.579Z,1.42
2022-11-26T02:40:08.587Z,1.77
2022-11-26T02:42:36.924Z,1.42
2022-11-26T02:45:11.391Z,1.30
2022-11-26T02:47:40.866Z,1.40
2022-11-26T02:50:12.833Z,1.23
2022-11-26T02:52:42.497Z,1.75
2022-11-26T02:55:12.972Z,1.30
2022-11-26T02:57:46.163Z,1.50
2022-11-26T03:00:14.574Z,1.40
2022-11-26T03:02:49.802Z,1.10
2022-11-26T03:05:18.280Z,2.65
2022-11-26T03:07:51.214Z,1.45
2022-11-26T03:10:20.375Z,1.52
2022-11-26T03:12:47.496Z,1.65
2022-11-26T03:15:14.314Z,1.60
2022-11-26T03:17:41.063Z,1.50
2022-11-26T03:20:08.575Z,2.40
2022-11-26T03:22:35.432Z,1.70
2022-11-26T03:25:02.686Z,2.05
2022-11-26T03:27:29.375Z,1.27
2022-11-26T03:29:56.118Z,1.70
2022-11-26T03:32:22.990Z,1.50
2022-11-26T03:34:50.025Z,1.30
2022-11-26T03:37:17.003Z,1.50
2022-11-26T03:39:43.778Z,1.77
2022-11-26T03:42:10.547Z,1.20
2022-11-26T03:44:37.610Z,1.35
2022-11-26T03:47:04.560Z,1.40
2022-11-26T03:49:31.942Z,1.48
2022-11-26T03:51:58.648Z,2.05
2022-11-26T03:54:25.561Z,1.00
2022-11-26T03:56:52.272Z,0.90
2022-11-26T03:59:18.966Z,1.00
2022-11-26T04:01:45.891Z,1.20
2022-11-26T04:04:12.658Z,1.50
2022-11-26T04:06:39.401Z,2.95
2022-11-26T04:09:06.163Z,2.83
2022-11-26T04:11:32.971Z,3.08
2022-11-26T04:14:00.108Z,3.13
2022-11-26T04:16:27.236Z,3.30
2022-11-26T04:18:54.012Z,2.97
2022-11-26T04:21:20.705Z,1.95
2022-11-26T04:23:48.536Z,1.90
2022-11-26T04:26:15.256Z,1.38
2022-11-26T04:28:41.982Z,1.67
2022-11-26T04:31:08.686Z,1.10
2022-11-26T04:33:35.400Z,0.88
2022-11-26T04:36:02.696Z,1.13
2022-11-26T04:38:29.562Z,0.90
2022-11-26T04:40:56.451Z,0.85
2022-11-26T04:43:23.303Z,0.95
2022-11-26T04:45:50.133Z,0.70
2022-11-26T04:48:16.963Z,0.82
2022-11-26T04:50:43.835Z,0.90
2022-11-26T04:53:10.647Z,0.70
2022-11-26T04:55:37.418Z,0.98
2022-11-26T04:58:04.183Z,0.60
2022-11-26T05:00:30.912Z,0.98
2022-11-26T05:02:57.703Z,0.80
2022-11-26T05:05:24.433Z,0.88
2022-11-26T05:07:51.271Z,0.55
2022-11-26T05:10:18.255Z,0.50
2022-11-26T05:12:44.929Z,1.08
2022-11-26T05:15:11.683Z,0.80
2022-11-26T05:17:38.616Z,0.85
2022-11-26T05:20:06.146Z,0.90
2022-11-26T05:22:32.867Z,1.20
2022-11-26T05:24:59.568Z,0.88
2022-11-26T05:27:26.342Z,0.50
2022-11-26T05:29:53.059Z,0.90
2022-11-26T05:32:19.886Z,0.77
2022-11-26T05:34:46.589Z,0.70
2022-11-26T05:37:13.320Z,0.93
2022-11-26T05:39:40.071Z,0.80
2022-11-26T05:42:09.433Z,0.60
2022-11-26T05:44:37.222Z,1.10
2022-11-26T05:47:04.630Z,1.95
2022-11-26T05:49:31.360Z,1.75
2022-11-26T05:51:58.088Z,1.95
2022-11-26T05:54:24.815Z,4.35
2022-11-26T05:56:56.932Z,2.30
2022-11-26T05:59:26.593Z,3.20
2022-11-26T06:01:53.340Z,1.55
2022-11-26T06:04:20.095Z,3.28
2022-11-26T06:06:46.946Z,1.73
2022-11-26T06:09:13.926Z,1.48
2022-11-26T06:11:40.739Z,1.40
2022-11-26T06:14:07.447Z,1.90
2022-11-26T06:16:34.226Z,2.75
2022-11-26T06:19:01.043Z,3.05
2022-11-26T06:21:27.730Z,3.70
2022-11-26T06:23:59.108Z,4.57
2022-11-26T06:26:26.575Z,4.28
2022-11-26T06:28:53.391Z,3.75
2022-11-26T06:31:20.524Z,2.80
2022-11-26T06:33:47.407Z,3.50
2022-11-26T06:36:14.299Z,3.67
2022-11-26T06:38:41.024Z,3.03
2022-11-26T06:41:08.578Z,3.20
2022-11-26T06:43:35.867Z,3.03
2022-11-26T06:46:06.287Z,3.80
2022-11-26T06:48:34.177Z,4.05
2022-11-26T06:51:08.927Z,2.92
2022-11-26T06:53:35.923Z,3.35
2022-11-26T06:56:04.442Z,3.30
2022-11-26T06:58:32.256Z,1.55
2022-11-26T07:00:59.186Z,1.77
2022-11-26T07:03:31.956Z,1.90
2022-11-26T07:06:00.087Z,1.58
2022-11-26T07:08:27.074Z,1.67
2022-11-26T07:10:53.795Z,1.63
2022-11-26T07:13:20.509Z,2.88
2022-11-26T07:15:47.304Z,2.40
2022-11-26T07:18:14.047Z,2.55
2022-11-26T07:20:40.759Z,2.45
2022-11-26T07:23:07.557Z,1.83
2022-11-26T07:25:34.319Z,1.80
2022-11-26T07:28:01.022Z,2.45
2022-11-26T07:30:27.889Z,3.17
2022-11-26T07:32:54.634Z,2.38
2022-11-26T07:35:21.448Z,2.13
2022-11-26T07:37:48.221Z,2.50
2022-11-26T07:40:15.807Z,2.65
2022-11-26T07:42:42.535Z,3.13
2022-11-26T07:45:09.633Z,3.13
2022-11-26T07:47:36.447Z,3.28
2022-11-26T07:50:04.101Z,6.07
2022-11-26T07:52:30.827Z,3.90
2022-11-26T07:54:57.766Z,2.88
2022-11-26T07:57:25.212Z,2.65
2022-11-26T07:59:51.981Z,2.25
2022-11-26T08:02:18.932Z,1.90
2022-11-26T08:04:45.838Z,3.30
2022-11-26T08:07:16.201Z,3.30
2022-11-26T08:09:48.703Z,5.32
2022-11-26T08:12:15.392Z,6.90
2022-11-26T08:14:42.148Z,9.48
2022-11-26T08:17:08.875Z,6.05
2022-11-26T08:19:35.624Z,7.78
2022-11-26T08:22:02.359Z,8.95
2022-11-26T08:24:31.055Z,7.95
2022-11-26T08:27:00.434Z,7.63
2022-11-26T08:29:27.536Z,6.93
2022-11-26T08:31:54.346Z,5.90
2022-11-26T08:34:21.119Z,6.10
2022-11-26T08:36:47.942Z,7.82
2022-11-26T08:39:17.653Z,5.78
2022-11-26T08:41:48.929Z,6.47
2022-11-26T08:44:19.307Z,9.57
2022-11-26T08:46:46.230Z,8.57
2022-11-26T08:49:14.850Z,13.63
2022-11-26T08:51:42.207Z,11.40
2022-11-26T08:54:09.140Z,11.43
2022-11-26T08:56:36.021Z,10.27
2022-11-26T08:59:03.000Z,7.47
2022-11-26T09:01:32.567Z,6.35
2022-11-26T09:04:01.130Z,6.45
2022-11-26T09:06:29.994Z,5.40
2022-11-26T09:09:15.732Z,6.25
2022-11-26T09:12:07.062Z,5.20
2022-11-26T09:14:40.013Z,6.80
2022-11-26T09:17:07.672Z,5.30
2022-11-26T09:19:34.471Z,5.68
2022-11-26T09:22:01.332Z,5.53
2022-11-26T09:24:28.069Z,5.47
2022-11-26T09:26:54.907Z,5.03
2022-11-26T09:29:23.553Z,6.15
2022-11-26T09:34:37.991Z,6.65
2022-11-26T09:37:05.000Z,4.90
2022-11-26T09:39:31.760Z,4.80
2022-11-26T09:42:21.251Z,3.85
2022-11-26T09:45:07.443Z,4.22
2022-11-26T09:47:45.522Z,3.70
2022-11-26T09:50:15.381Z,3.90
2022-11-26T09:52:50.630Z,2.53
2022-11-26T09:55:19.255Z,3.60
2022-11-26T09:58:12.109Z,2.97
2022-11-26T10:00:45.258Z,2.65
2022-11-26T10:03:18.018Z,2.63
2022-11-26T10:05:51.316Z,2.60
2022-11-26T10:08:29.341Z,3.10
2022-11-26T10:11:04.320Z,2.35
2022-11-26T10:13:46.382Z,2.28
2022-11-26T10:16:20.995Z,2.63
2022-11-26T10:19:09.242Z,3.58
2022-11-26T10:24:29.959Z,2.63
2022-11-26T10:26:59.679Z,2.28
2022-11-26T10:29:27.497Z,2.42
2022-11-26T10:31:58.798Z,2.35
2022-11-26T10:34:39.504Z,2.65
2022-11-26T10:37:06.682Z,2.30
2022-11-26T10:39:33.555Z,2.63
2022-11-26T10:42:21.731Z,2.50
2022-11-26T10:44:53.245Z,2.30
2022-11-26T10:47:31.111Z,2.40
2022-11-26T10:50:14.402Z,2.10
2022-11-26T10:52:52.652Z,3.03
2022-11-26T10:55:34.458Z,2.35
2022-11-26T11:00:36.865Z,2.17
2022-11-26T11:03:06.617Z,1.90
2022-11-26T11:05:35.093Z,2.65
2022-11-26T11:08:01.844Z,2.92
2022-11-26T11:10:28.703Z,2.75
2022-11-26T11:13:11.979Z,3.25
2022-11-26T11:15:41.102Z,3.28
2022-11-26T11:18:21.830Z,3.10
2022-11-26T11:20:57.548Z,2.75
2022-11-26T11:24:00.206Z,3.58
2022-11-26T11:26:17.044Z,2.92
2022-11-26T11:28:48.934Z,3.58
2022-11-26T11:31:21.420Z,3.08
2022-11-26T11:33:49.988Z,2.22
2022-11-26T11:36:29.513Z,2.50
2022-11-26T11:38:59.175Z,2.33
2022-11-26T11:41:33.543Z,2.83
2022-11-26T11:44:20.567Z,2.40
2022-11-26T11:47:03.991Z,3.75
2022-11-26T11:49:56.140Z,2.75
2022-11-26T11:52:22.901Z,2.95
2022-11-26T11:54:54.399Z,2.63
2022-11-26T11:58:06.389Z,3.15
2022-11-26T12:00:50.058Z,2.60
2022-11-26T12:03:31.331Z,2.45
2022-11-26T12:06:05.177Z,1.90
2022-11-26T12:09:02.520Z,2.33
2022-11-26T12:11:51.686Z,2.33
2022-11-26T12:14:38.770Z,2.38
2022-11-26T12:17:16.047Z,2.08
2022-11-26T12:19:52.299Z,2.00
2022-11-26T12:22:38.083Z,2.72
2022-11-26T12:25:07.946Z,2.45
2022-11-26T12:27:44.937Z,2.22
2022-11-26T12:30:18.755Z,2.38
2022-11-26T12:32:48.363Z,2.50
2022-11-26T12:35:32.672Z,2.05
2022-11-26T12:38:10.559Z,2.38
2022-11-26T12:40:52.616Z,2.03
2022-11-26T12:43:44.842Z,1.80
2022-11-26T12:46:31.083Z,3.20
2022-11-26T12:49:21.816Z,2.08
2022-11-26T12:52:01.524Z,2.17
2022-11-26T12:54:40.463Z,2.38
2022-11-26T12:57:25.101Z,2.60
2022-11-26T12:59:59.828Z,2.35
2022-11-26T13:02:30.543Z,2.50
2022-11-26T13:04:59.220Z,2.50
2022-11-26T13:08:01.032Z,3.75
2022-11-26T13:10:46.977Z,3.85
2022-11-26T13:13:38.912Z,5.50
2022-11-26T13:18:55.729Z,9.48
2022-11-26T13:21:55.769Z,11.18
2022-11-26T13:24:40.788Z,9.65
2022-11-26T13:27:16.881Z,9.93
2022-11-26T13:30:21.414Z,9.10
2022-11-26T13:33:23.795Z,10.98
2022-11-26T13:35:57.275Z,11.00
2022-11-26T13:38:36.945Z,12.50
2022-11-26T13:41:33.672Z,9.65
2022-11-26T13:44:34.420Z,7.70
2022-11-26T13:47:09.718Z,7.45
2022-11-26T13:49:53.362Z,7.90
2022-11-26T13:52:23.415Z,8.07
2022-11-26T13:54:58.496Z,7.65
2022-11-26T13:57:35.625Z,8.23
2022-11-26T14:00:04.103Z,6.93
2022-11-26T14:05:10.850Z,7.40
2022-11-26T14:07:40.897Z,8.07
2022-11-26T14:10:36.180Z,7.97
2022-11-26T14:13:03.486Z,5.90
2022-11-26T14:15:42.777Z,6.28
2022-11-26T14:18:11.245Z,4.53
2022-11-26T14:20:57.969Z,5.20
2022-11-26T14:23:56.666Z,5.35
2022-11-26T14:26:38.169Z,5.50
2022-11-26T14:29:08.438Z,7.13
2022-11-26T14:31:40.695Z,8.75
2022-11-26T14:34:26.564Z,11.45
2022-11-26T14:36:58.860Z,11.23
2022-11-26T14:39:27.718Z,10.63
2022-11-26T14:42:01.966Z,11.13
2022-11-26T14:44:33.096Z,13.75
2022-11-26T14:47:08.061Z,12.63
2022-11-26T14:49:45.790Z,14.80
2022-11-26T14:52:34.993Z,16.35
2022-11-26T14:55:06.908Z,14.63
2022-11-26T14:57:44.521Z,13.60
2022-11-26T15:00:14.297Z,18.20
2022-11-26T15:02:45.712Z,16.38
2022-11-26T15:05:20.772Z,15.35
2022-11-26T15:07:58.850Z,13.60
2022-11-26T15:10:27.202Z,13.98
2022-11-26T15:12:59.817Z,14.18
2022-11-26T15:15:26.586Z,11.80
2022-11-26T15:18:01.055Z,11.77
2022-11-26T15:20:28.306Z,12.63
2022-11-26T15:22:57.786Z,16.25
2022-11-26T15:25:27.723Z,13.30
2022-11-26T15:28:06.283Z,13.55
2022-11-26T15:30:37.824Z,12.38
2022-11-26T15:35:40.040Z,13.55
2022-11-26T15:38:19.966Z,11.15
2022-11-26T15:40:52.973Z,9.82
2022-11-26T15:43:22.731Z,11.00
2022-11-26T15:45:51.533Z,8.70
2022-11-26T15:48:54.185Z,9.00
2022-11-26T15:51:35.462Z,10.48
2022-11-26T15:54:05.983Z,7.70
2022-11-26T15:56:36.851Z,7.22
2022-11-26T15:59:12.227Z,5.82
2022-11-26T16:01:43.025Z,5.75
2022-11-26T16:04:32.467Z,5.00
2022-11-26T16:07:12.939Z,4.55
2022-11-26T16:09:40.364Z,4.20
2022-11-26T16:12:34.049Z,3.60
2022-11-26T16:15:19.296Z,2.75
2022-11-26T16:17:47.521Z,4.22
2022-11-26T16:20:22.076Z,3.65
2022-11-26T16:22:54.033Z,2.55
2022-11-26T16:25:23.235Z,2.50
2022-11-26T16:28:11.219Z,2.00
2022-11-26T16:30:40.179Z,2.45
2022-11-26T16:33:07.471Z,4.90
2022-11-26T16:35:49.663Z,5.55
2022-11-26T16:38:25.185Z,7.07
2022-11-26T16:40:53.140Z,6.72
2022-11-26T16:43:20.424Z,5.25
2022-11-26T16:45:49.589Z,4.38
2022-11-26T16:48:26.081Z,5.45
2022-11-26T16:50:55.038Z,3.22
2022-11-26T16:53:22.912Z,3.63
2022-11-26T16:55:50.470Z,2.20
2022-11-26T16:58:26.971Z,2.10
2022-11-26T17:00:55.628Z,7.45
2022-11-26T17:03:23.509Z,9.48
2022-11-26T17:05:53.567Z,8.15
2022-11-26T17:08:20.311Z,6.38
2022-11-26T17:10:47.614Z,4.72
2022-11-26T17:13:17.795Z,4.05
2022-11-26T17:15:44.977Z,5.38
2022-11-26T17:18:22.539Z,6.20
2022-11-26T17:20:50.295Z,13.18
2022-11-26T17:23:17.322Z,12.52
2022-11-26T17:25:46.280Z,9.45
2022-11-26T17:28:14.291Z,8.82
2022-11-26T17:30:42.420Z,9.43
2022-11-26T17:33:10.294Z,11.70
2022-11-26T17:35:37.927Z,11.82
2022-11-26T17:38:11.767Z,11.23
2022-11-26T17:40:38.456Z,9.55
2022-11-26T17:43:05.158Z,9.90
2022-11-26T17:45:31.846Z,12.05
2022-11-26T17:47:58.611Z,9.70
2022-11-26T17:50:28.144Z,12.15
2022-11-26T17:52:55.418Z,13.43
2022-11-26T17:55:24.031Z,16.83
2022-11-26T17:57:51.258Z,20.00
2022-11-26T18:00:22.799Z,23.17
2022-11-26T18:02:49.519Z,57.03
2022-11-26T18:05:16.800Z,33.70
2022-11-26T18:07:43.677Z,38.25
2022-11-26T18:10:13.683Z,32.42
2022-11-26T18:12:41.034Z,72.82
2022-11-26T18:15:08.557Z,52.22
2022-11-26T18:17:35.281Z,28.10
2022-11-26T18:20:02.047Z,29.35
2022-11-26T18:22:29.879Z,23.90
2022-11-26T18:24:57.621Z,16.02
2022-11-26T18:27:26.804Z,10.65
2022-11-26T18:29:54.131Z,24.15
2022-11-26T18:32:21.023Z,24.52
2022-11-26T18:34:51.025Z,34.50
2022-11-26T18:37:18.456Z,37.42
2022-11-26T18:39:45.392Z,30.77
2022-11-26T18:45:00.517Z,21.50
2022-11-26T18:47:27.223Z,23.77
2022-11-26T18:49:54.009Z,26.85
2022-11-26T18:52:20.997Z,25.92
2022-11-26T18:54:47.690Z,21.50
2022-11-26T18:57:15.463Z,20.58
2022-11-26T18:59:42.612Z,18.08
2022-11-26T19:02:10.798Z,17.40
2022-11-26T19:04:38.906Z,10.20
2022-11-26T19:07:05.833Z,7.78
2022-11-26T19:09:32.601Z,12.60
2022-11-26T19:11:59.726Z,11.75
2022-11-26T19:14:27.070Z,12.05
2022-11-26T19:16:54.649Z,13.90
2022-11-26T19:19:21.685Z,15.95
2022-11-26T19:21:50.590Z,13.45
2022-11-26T19:24:17.663Z,13.18
2022-11-26T19:26:44.443Z,14.70
2022-11-26T19:29:12.887Z,12.38
2022-11-26T19:31:40.140Z,11.07
2022-11-26T19:34:12.487Z,10.32
2022-11-26T19:36:39.687Z,10.27
2022-11-26T19:39:09.420Z,11.40
2022-11-26T19:41:36.442Z,10.02
2022-11-26T19:44:05.448Z,10.68
2022-11-26T19:46:32.656Z,9.45
2022-11-26T19:48:59.494Z,9.75
2022-11-26T19:51:27.856Z,8.38
2022-11-26T19:53:55.952Z,8.70
2022-11-26T19:56:28.539Z,8.90
2022-11-26T19:58:58.280Z,7.93
2022-11-26T20:01:27.632Z,8.00
2022-11-26T20:03:54.403Z,8.23
2022-11-26T20:06:23.921Z,7.82
2022-11-26T20:08:50.660Z,9.23
2022-11-26T20:11:18.382Z,8.52
2022-11-26T20:13:46.633Z,8.93
2022-11-26T20:16:26.490Z,9.18
2022-11-26T20:18:53.673Z,15.25
2022-11-26T20:21:23.313Z,19.70
2022-11-26T20:23:50.841Z,19.10
2022-11-26T20:26:25.159Z,24.83
2022-11-26T20:28:53.191Z,26.13
2022-11-26T20:31:24.031Z,22.80
2022-11-26T20:33:53.010Z,16.00
2022-11-26T20:36:22.652Z,16.55
2022-11-26T20:38:57.301Z,16.58
2022-11-26T20:41:26.336Z,19.55
2022-11-26T20:43:58.584Z,14.68
2022-11-26T20:46:28.004Z,16.95
2022-11-26T20:48:55.330Z,15.10
2022-11-26T20:51:23.069Z,13.35
2022-11-26T20:53:51.404Z,13.65
2022-11-26T20:56:20.785Z,13.63
2022-11-26T20:58:49.018Z,12.93
2022-11-26T21:01:26.411Z,12.10
2022-11-26T21:03:53.929Z,13.18
2022-11-26T21:06:28.965Z,11.35
2022-11-26T21:08:59.172Z,10.98
2022-11-26T21:11:26.090Z,8.75
2022-11-26T21:13:52.900Z,9.73
2022-11-26T21:16:19.974Z,7.53
2022-11-26T21:18:46.865Z,8.23
2022-11-26T21:21:15.828Z,9.38
2022-11-26T21:23:44.068Z,10.00
2022-11-26T21:26:14.897Z,10.75
2022-11-26T21:28:41.716Z,9.07
2022-11-26T21:31:11.663Z,10.18
2022-11-26T21:33:38.631Z,9.32
2022-11-26T21:36:10.144Z,9.45
2022-11-26T21:38:38.065Z,8.13
2022-11-26T21:41:11.515Z,10.15
2022-11-26T21:43:42.783Z,9.18
2022-11-26T21:46:22.279Z,10.98
2022-11-26T21:48:49.318Z,9.05
2022-11-26T21:51:17.862Z,9.20
2022-11-26T21:53:44.829Z,8.48
2022-11-26T21:56:20.544Z,12.13
2022-11-26T21:58:48.215Z,7.97
2022-11-26T22:01:30.641Z,9.00
2022-11-26T22:04:03.943Z,7.93
2022-11-26T22:06:31.039Z,6.45
2022-11-26T22:08:58.034Z,6.95
2022-11-26T22:11:27.428Z,5.90
2022-11-26T22:13:54.565Z,8.38
2022-11-26T22:16:23.512Z,12.70
2022-11-26T22:18:50.733Z,15.85
2022-11-26T22:21:22.197Z,14.05
2022-11-26T22:23:50.239Z,14.25
2022-11-26T22:26:18.521Z,12.32
2022-11-26T22:28:45.879Z,9.00
2022-11-26T22:31:17.095Z,9.82
2022-11-26T22:33:44.097Z,9.57
2022-11-26T22:36:11.024Z,9.35
2022-11-26T22:38:39.222Z,8.07
2022-11-26T22:41:08.213Z,7.30
2022-11-26T22:43:34.997Z,7.95
2022-11-26T22:46:06.078Z,7.80
2022-11-26T22:48:34.529Z,8.05
2022-11-26T22:51:01.952Z,7.53
2022-11-26T22:53:28.916Z,6.25
2022-11-26T22:55:58.439Z,6.97
2022-11-26T22:58:27.002Z,6.80
2022-11-26T23:00:59.685Z,6.10
2022-11-26T23:03:28.879Z,6.35
2022-11-26T23:05:55.995Z,5.53
2022-11-26T23:08:22.788Z,7.28
2022-11-26T23:10:50.006Z,5.05
2022-11-26T23:13:17.360Z,4.60
2022-11-26T23:15:45.943Z,3.90
2022-11-26T23:18:14.650Z,5.10
2022-11-26T23:20:41.981Z,4.05
2022-11-26T23:23:09.143Z,3.85
2022-11-26T23:25:40.713Z,5.07
2022-11-26T23:28:08.331Z,5.25
2022-11-26T23:30:35.779Z,3.75
2022-11-26T23:33:02.678Z,3.92
2022-11-26T23:35:29.405Z,3.17
2022-11-26T23:37:56.203Z,3.83
2022-11-26T23:40:22.910Z,4.53
2022-11-26T23:42:49.620Z,3.95
2022-11-26T23:45:16.344Z,3.60
2022-11-26T23:47:43.135Z,3.58
2022-11-26T23:50:10.338Z,4.13
2022-11-26T23:52:37.201Z,3.80
2022-11-26T23:55:04.163Z,4.03
2022-11-26T23:57:30.909Z,5.50
2022-11-26T23:59:57.813Z,4.47
